sensor_id;sensor_type;location;lat;lon;timestamp;P1;durP1;ratioP1;P2;durP2;ratioP2
31514;SDS011;40526;52.088;17.020;2023-11-22T00:00:47;22.50;;;9.73;;
31514;SDS011;40526;52.088;17.020;2023-11-22T00:05:49;15.82;;;7.53;;
31514;SDS011;40526;52.088;17.020;2023-11-22T00:10:54;15.95;;;9.40;;
31514;SDS011;40526;52.088;17.020;2023-11-22T00:15:56;15.32;;;8.52;;
31514;SDS011;40526;52.088;17.020;2023-11-22T00:20:58;16.77;;;8.85;;
31514;SDS011;40526;52.088;17.020;2023-11-22T00:26:02;12.65;;;8.52;;
31514;SDS011;40526;52.088;17.020;2023-11-22T00:31:06;18.70;;;8.48;;
31514;SDS011;40526;52.088;17.020;2023-11-22T00:36:09;15.45;;;8.07;;
31514;SDS011;40526;52.088;17.020;2023-11-22T00:41:13;13.25;;;7.72;;
31514;SDS011;40526;52.088;17.020;2023-11-22T00:46:16;16.00;;;8.48;;
31514;SDS011;40526;52.088;17.020;2023-11-22T00:51:18;18.35;;;7.47;;
31514;SDS011;40526;52.088;17.020;2023-11-22T00:56:22;22.05;;;10.23;;
31514;SDS011;40526;52.088;17.020;2023-11-22T01:01:25;18.33;;;9.18;;
31514;SDS011;40526;52.088;17.020;2023-11-22T01:06:27;24.50;;;10.80;;
31514;SDS011;40526;52.088;17.020;2023-11-22T01:11:32;25.92;;;9.05;;
31514;SDS011;40526;52.088;17.020;2023-11-22T01:16:34;13.13;;;7.15;;
31514;SDS011;40526;52.088;17.020;2023-11-22T01:21:37;12.32;;;7.22;;
31514;SDS011;40526;52.088;17.020;2023-11-22T01:26:41;12.68;;;7.25;;
31514;SDS011;40526;52.088;17.020;2023-11-22T01:31:44;12.75;;;6.70;;
31514;SDS011;40526;52.088;17.020;2023-11-22T01:36:49;15.60;;;8.38;;
31514;SDS011;40526;52.088;17.020;2023-11-22T01:41:53;15.70;;;7.60;;
31514;SDS011;40526;52.088;17.020;2023-11-22T01:46:56;11.98;;;6.93;;
31514;SDS011;40526;52.088;17.020;2023-11-22T01:51:58;13.73;;;6.22;;
31514;SDS011;40526;52.088;17.020;2023-11-22T01:57:04;13.77;;;8.18;;
31514;SDS011;40526;52.088;17.020;2023-11-22T02:02:09;18.17;;;7.13;;
31514;SDS011;40526;52.088;17.020;2023-11-22T02:07:14;22.58;;;7.82;;
31514;SDS011;40526;52.088;17.020;2023-11-22T02:12:18;14.45;;;7.63;;
31514;SDS011;40526;52.088;17.020;2023-11-22T02:17:21;12.05;;;8.43;;
31514;SDS011;40526;52.088;17.020;2023-11-22T02:22:23;11.32;;;6.82;;
31514;SDS011;40526;52.088;17.020;2023-11-22T02:27:27;14.15;;;7.70;;
31514;SDS011;40526;52.088;17.020;2023-11-22T02:32:30;12.93;;;7.57;;
31514;SDS011;40526;52.088;17.020;2023-11-22T02:37:33;14.13;;;7.00;;
31514;SDS011;40526;52.088;17.020;2023-11-22T02:42:37;14.05;;;6.55;;
31514;SDS011;40526;52.088;17.020;2023-11-22T02:47:40;12.55;;;5.85;;
31514;SDS011;40526;52.088;17.020;2023-11-22T02:52:47;13.85;;;6.65;;
31514;SDS011;40526;52.088;17.020;2023-11-22T02:57:51;12.55;;;6.88;;
31514;SDS011;40526;52.088;17.020;2023-11-22T03:02:54;16.85;;;7.20;;
31514;SDS011;40526;52.088;17.020;2023-11-22T03:07:58;15.13;;;7.03;;
31514;SDS011;40526;52.088;17.020;2023-11-22T03:13:02;13.02;;;6.57;;
31514;SDS011;40526;52.088;17.020;2023-11-22T03:18:05;13.65;;;7.03;;
31514;SDS011;40526;52.088;17.020;2023-11-22T03:23:08;12.48;;;6.90;;
31514;SDS011;40526;52.088;17.020;2023-11-22T03:28:13;15.63;;;8.18;;
31514;SDS011;40526;52.088;17.020;2023-11-22T03:33:15;16.20;;;6.65;;
31514;SDS011;40526;52.088;17.020;2023-11-22T03:38:18;14.88;;;6.47;;
31514;SDS011;40526;52.088;17.020;2023-11-22T03:43:22;11.68;;;6.53;;
31514;SDS011;40526;52.088;17.020;2023-11-22T03:48:28;14.32;;;7.80;;
31514;SDS011;40526;52.088;17.020;2023-11-22T03:53:34;14.75;;;7.63;;
31514;SDS011;40526;52.088;17.020;2023-11-22T03:58:39;19.65;;;6.65;;
31514;SDS011;40526;52.088;17.020;2023-11-22T04:03:42;12.23;;;6.88;;
31514;SDS011;40526;52.088;17.020;2023-11-22T04:08:45;14.25;;;7.75;;
31514;SDS011;40526;52.088;17.020;2023-11-22T04:13:49;14.18;;;7.28;;
31514;SDS011;40526;52.088;17.020;2023-11-22T04:18:53;28.10;;;8.90;;
31514;SDS011;40526;52.088;17.020;2023-11-22T04:23:55;13.52;;;7.55;;
31514;SDS011;40526;52.088;17.020;2023-11-22T04:28:59;13.35;;;7.35;;
31514;SDS011;40526;52.088;17.020;2023-11-22T04:34:01;15.63;;;8.80;;
31514;SDS011;40526;52.088;17.020;2023-11-22T04:39:03;17.45;;;8.85;;
31514;SDS011;40526;52.088;17.020;2023-11-22T04:44:08;21.80;;;8.57;;
31514;SDS011;40526;52.088;17.020;2023-11-22T04:49:11;14.70;;;7.75;;
31514;SDS011;40526;52.088;17.020;2023-11-22T04:54:13;12.93;;;7.75;;
31514;SDS011;40526;52.088;17.020;2023-11-22T04:59:17;15.30;;;8.27;;
31514;SDS011;40526;52.088;17.020;2023-11-22T05:04:20;18.90;;;9.13;;
31514;SDS011;40526;52.088;17.020;2023-11-22T05:09:22;20.60;;;10.27;;
31514;SDS011;40526;52.088;17.020;2023-11-22T05:14:26;20.38;;;9.75;;
31514;SDS011;40526;52.088;17.020;2023-11-22T05:19:28;29.85;;;12.73;;
31514;SDS011;40526;52.088;17.020;2023-11-22T05:24:31;27.65;;;12.57;;
31514;SDS011;40526;52.088;17.020;2023-11-22T05:29:36;23.00;;;11.65;;
31514;SDS011;40526;52.088;17.020;2023-11-22T05:34:39;30.08;;;13.07;;
31514;SDS011;40526;52.088;17.020;2023-11-22T05:39:41;29.05;;;12.40;;
31514;SDS011;40526;52.088;17.020;2023-11-22T05:44:46;23.23;;;12.30;;
31514;SDS011;40526;52.088;17.020;2023-11-22T05:49:50;25.38;;;12.63;;
31514;SDS011;40526;52.088;17.020;2023-11-22T05:54:52;17.17;;;9.05;;
31514;SDS011;40526;52.088;17.020;2023-11-22T05:59:56;19.88;;;9.50;;
31514;SDS011;40526;52.088;17.020;2023-11-22T06:04:59;24.10;;;13.77;;
31514;SDS011;40526;52.088;17.020;2023-11-22T06:10:01;22.20;;;13.02;;
31514;SDS011;40526;52.088;17.020;2023-11-22T06:15:06;21.55;;;10.40;;
31514;SDS011;40526;52.088;17.020;2023-11-22T06:20:10;20.88;;;11.40;;
31514;SDS011;40526;52.088;17.020;2023-11-22T06:25:13;23.10;;;12.82;;
31514;SDS011;40526;52.088;17.020;2023-11-22T06:30:17;35.47;;;16.65;;
31514;SDS011;40526;52.088;17.020;2023-11-22T06:35:19;24.02;;;12.35;;
31514;SDS011;40526;52.088;17.020;2023-11-22T06:40:22;26.52;;;14.48;;
31514;SDS011;40526;52.088;17.020;2023-11-22T06:45:25;30.73;;;18.67;;
31514;SDS011;40526;52.088;17.020;2023-11-22T06:50:28;28.83;;;14.00;;
31514;SDS011;40526;52.088;17.020;2023-11-22T06:55:30;28.77;;;15.32;;
31514;SDS011;40526;52.088;17.020;2023-11-22T07:00:35;25.95;;;14.45;;
31514;SDS011;40526;52.088;17.020;2023-11-22T07:05:39;32.85;;;14.38;;
31514;SDS011;40526;52.088;17.020;2023-11-22T07:10:42;20.67;;;12.57;;
31514;SDS011;40526;52.088;17.020;2023-11-22T07:15:46;24.08;;;12.98;;
31514;SDS011;40526;52.088;17.020;2023-11-22T07:20:49;25.63;;;14.20;;
31514;SDS011;40526;52.088;17.020;2023-11-22T07:25:53;23.70;;;12.52;;
31514;SDS011;40526;52.088;17.020;2023-11-22T07:30:57;27.63;;;12.45;;
31514;SDS011;40526;52.088;17.020;2023-11-22T07:36:02;28.23;;;14.75;;
31514;SDS011;40526;52.088;17.020;2023-11-22T07:41:04;24.05;;;14.02;;
31514;SDS011;40526;52.088;17.020;2023-11-22T07:46:09;18.08;;;10.35;;
31514;SDS011;40526;52.088;17.020;2023-11-22T07:51:13;24.50;;;11.93;;
31514;SDS011;40526;52.088;17.020;2023-11-22T07:56:17;24.15;;;12.43;;
31514;SDS011;40526;52.088;17.020;2023-11-22T08:01:20;25.45;;;13.23;;
31514;SDS011;40526;52.088;17.020;2023-11-22T08:06:23;42.88;;;16.60;;
31514;SDS011;40526;52.088;17.020;2023-11-22T08:11:27;49.78;;;19.02;;
31514;SDS011;40526;52.088;17.020;2023-11-22T08:16:31;34.17;;;13.63;;
31514;SDS011;40526;52.088;17.020;2023-11-22T08:21:38;33.97;;;15.85;;
31514;SDS011;40526;52.088;17.020;2023-11-22T08:26:40;18.08;;;10.98;;
31514;SDS011;40526;52.088;17.020;2023-11-22T08:31:44;44.05;;;16.95;;
31514;SDS011;40526;52.088;17.020;2023-11-22T08:36:46;30.38;;;12.60;;
31514;SDS011;40526;52.088;17.020;2023-11-22T08:41:48;22.10;;;10.27;;
31514;SDS011;40526;52.088;17.020;2023-11-22T08:46:52;27.75;;;13.00;;
31514;SDS011;40526;52.088;17.020;2023-11-22T08:51:54;20.08;;;10.80;;
31514;SDS011;40526;52.088;17.020;2023-11-22T08:56:57;19.15;;;11.15;;
31514;SDS011;40526;52.088;17.020;2023-11-22T09:02:01;17.08;;;9.65;;
31514;SDS011;40526;52.088;17.020;2023-11-22T09:07:04;19.98;;;10.55;;
31514;SDS011;40526;52.088;17.020;2023-11-22T09:12:07;19.38;;;10.57;;
31514;SDS011;40526;52.088;17.020;2023-11-22T09:17:14;13.95;;;8.65;;
31514;SDS011;40526;52.088;17.020;2023-11-22T09:22:16;16.75;;;9.43;;
31514;SDS011;40526;52.088;17.020;2023-11-22T09:27:19;17.48;;;9.15;;
31514;SDS011;40526;52.088;17.020;2023-11-22T09:32:23;19.02;;;11.52;;
31514;SDS011;40526;52.088;17.020;2023-11-22T09:37:25;12.98;;;8.82;;
31514;SDS011;40526;52.088;17.020;2023-11-22T09:42:29;16.33;;;8.77;;
31514;SDS011;40526;52.088;17.020;2023-11-22T09:47:33;18.58;;;10.00;;
31514;SDS011;40526;52.088;17.020;2023-11-22T09:52:35;15.15;;;8.65;;
31514;SDS011;40526;52.088;17.020;2023-11-22T09:57:42;14.40;;;7.47;;
31514;SDS011;40526;52.088;17.020;2023-11-22T10:02:46;9.98;;;6.95;;
31514;SDS011;40526;52.088;17.020;2023-11-22T10:07:48;16.20;;;8.07;;
31514;SDS011;40526;52.088;17.020;2023-11-22T10:12:53;13.32;;;7.57;;
31514;SDS011;40526;52.088;17.020;2023-11-22T10:17:58;13.05;;;6.75;;
31514;SDS011;40526;52.088;17.020;2023-11-22T10:23:00;9.90;;;6.38;;
31514;SDS011;40526;52.088;17.020;2023-11-22T10:28:03;14.38;;;7.47;;
31514;SDS011;40526;52.088;17.020;2023-11-22T10:33:10;20.70;;;7.85;;
31514;SDS011;40526;52.088;17.020;2023-11-22T10:38:14;10.65;;;6.38;;
31514;SDS011;40526;52.088;17.020;2023-11-22T10:43:17;12.73;;;6.68;;
31514;SDS011;40526;52.088;17.020;2023-11-22T10:48:21;31.33;;;10.70;;
31514;SDS011;40526;52.088;17.020;2023-11-22T10:53:27;14.93;;;7.68;;
31514;SDS011;40526;52.088;17.020;2023-11-22T10:58:34;17.90;;;7.47;;
31514;SDS011;40526;52.088;17.020;2023-11-22T11:03:39;8.68;;;6.30;;
31514;SDS011;40526;52.088;17.020;2023-11-22T11:08:42;12.93;;;7.22;;
31514;SDS011;40526;52.088;17.020;2023-11-22T11:13:45;14.75;;;8.95;;
31514;SDS011;40526;52.088;17.020;2023-11-22T11:18:49;15.63;;;8.52;;
31514;SDS011;40526;52.088;17.020;2023-11-22T11:23:53;28.35;;;10.93;;
31514;SDS011;40526;52.088;17.020;2023-11-22T11:28:58;18.05;;;9.38;;
31514;SDS011;40526;52.088;17.020;2023-11-22T11:34:02;14.05;;;7.95;;
31514;SDS011;40526;52.088;17.020;2023-11-22T11:39:07;13.02;;;6.90;;
31514;SDS011;40526;52.088;17.020;2023-11-22T11:44:14;13.38;;;7.82;;
31514;SDS011;40526;52.088;17.020;2023-11-22T11:49:21;13.90;;;7.65;;
31514;SDS011;40526;52.088;17.020;2023-11-22T11:54:24;13.65;;;7.05;;
31514;SDS011;40526;52.088;17.020;2023-11-22T11:59:27;20.48;;;9.55;;
31514;SDS011;40526;52.088;17.020;2023-11-22T12:04:33;22.30;;;11.18;;
31514;SDS011;40526;52.088;17.020;2023-11-22T12:09:35;13.15;;;7.78;;
31514;SDS011;40526;52.088;17.020;2023-11-22T12:14:38;15.82;;;9.02;;
31514;SDS011;40526;52.088;17.020;2023-11-22T12:19:42;15.18;;;8.15;;
31514;SDS011;40526;52.088;17.020;2023-11-22T12:24:44;15.75;;;8.52;;
31514;SDS011;40526;52.088;17.020;2023-11-22T12:29:47;15.43;;;8.10;;
31514;SDS011;40526;52.088;17.020;2023-11-22T12:34:50;12.70;;;8.65;;
31514;SDS011;40526;52.088;17.020;2023-11-22T12:39:54;14.30;;;7.22;;
31514;SDS011;40526;52.088;17.020;2023-11-22T12:44:56;13.85;;;8.45;;
31514;SDS011;40526;52.088;17.020;2023-11-22T12:50:00;18.67;;;8.38;;
31514;SDS011;40526;52.088;17.020;2023-11-22T12:55:02;16.70;;;8.57;;
31514;SDS011;40526;52.088;17.020;2023-11-22T13:00:08;22.85;;;11.52;;
31514;SDS011;40526;52.088;17.020;2023-11-22T13:05:13;14.95;;;8.48;;
31514;SDS011;40526;52.088;17.020;2023-11-22T13:10:16;16.85;;;8.38;;
31514;SDS011;40526;52.088;17.020;2023-11-22T13:15:19;13.25;;;7.72;;
31514;SDS011;40526;52.088;17.020;2023-11-22T13:20:25;15.52;;;8.27;;
31514;SDS011;40526;52.088;17.020;2023-11-22T13:25:27;15.55;;;7.93;;
31514;SDS011;40526;52.088;17.020;2023-11-22T13:30:30;10.25;;;6.63;;
31514;SDS011;40526;52.088;17.020;2023-11-22T13:35:34;11.93;;;6.93;;
31514;SDS011;40526;52.088;17.020;2023-11-22T13:40:38;11.88;;;7.53;;
31514;SDS011;40526;52.088;17.020;2023-11-22T13:45:41;12.88;;;7.88;;
31514;SDS011;40526;52.088;17.020;2023-11-22T13:50:46;18.40;;;8.38;;
31514;SDS011;40526;52.088;17.020;2023-11-22T13:55:49;19.77;;;11.00;;
31514;SDS011;40526;52.088;17.020;2023-11-22T14:00:54;33.90;;;14.50;;
31514;SDS011;40526;52.088;17.020;2023-11-22T14:05:58;31.55;;;13.02;;
31514;SDS011;40526;52.088;17.020;2023-11-22T14:11:01;27.63;;;13.75;;
31514;SDS011;40526;52.088;17.020;2023-11-22T14:16:03;39.63;;;18.08;;
31514;SDS011;40526;52.088;17.020;2023-11-22T14:21:07;20.45;;;11.05;;
31514;SDS011;40526;52.088;17.020;2023-11-22T14:26:11;15.27;;;8.27;;
31514;SDS011;40526;52.088;17.020;2023-11-22T14:31:13;18.92;;;10.55;;
31514;SDS011;40526;52.088;17.020;2023-11-22T14:36:17;18.67;;;9.48;;
31514;SDS011;40526;52.088;17.020;2023-11-22T14:41:20;22.27;;;12.18;;
31514;SDS011;40526;52.088;17.020;2023-11-22T14:46:22;29.95;;;14.95;;
31514;SDS011;40526;52.088;17.020;2023-11-22T14:51:26;287.05;;;85.20;;
31514;SDS011;40526;52.088;17.020;2023-11-22T14:56:28;269.38;;;86.25;;
31514;SDS011;40526;52.088;17.020;2023-11-22T15:01:31;63.40;;;27.58;;
31514;SDS011;40526;52.088;17.020;2023-11-22T15:06:34;27.58;;;17.23;;
31514;SDS011;40526;52.088;17.020;2023-11-22T15:11:37;28.13;;;16.00;;
31514;SDS011;40526;52.088;17.020;2023-11-22T15:16:41;22.27;;;12.45;;
31514;SDS011;40526;52.088;17.020;2023-11-22T15:21:44;21.00;;;12.55;;
31514;SDS011;40526;52.088;17.020;2023-11-22T15:26:47;20.58;;;11.68;;
31514;SDS011;40526;52.088;17.020;2023-11-22T15:31:49;25.67;;;12.50;;
31514;SDS011;40526;52.088;17.020;2023-11-22T15:36:53;19.42;;;10.88;;
31514;SDS011;40526;52.088;17.020;2023-11-22T15:41:56;22.77;;;12.10;;
31514;SDS011;40526;52.088;17.020;2023-11-22T15:46:58;26.00;;;12.90;;
31514;SDS011;40526;52.088;17.020;2023-11-22T15:52:06;28.73;;;12.45;;
31514;SDS011;40526;52.088;17.020;2023-11-22T15:57:08;25.00;;;13.10;;
31514;SDS011;40526;52.088;17.020;2023-11-22T16:02:10;16.63;;;10.93;;
31514;SDS011;40526;52.088;17.020;2023-11-22T16:07:14;22.75;;;11.30;;
31514;SDS011;40526;52.088;17.020;2023-11-22T16:12:17;22.15;;;12.60;;
31514;SDS011;40526;52.088;17.020;2023-11-22T16:17:20;22.45;;;12.13;;
31514;SDS011;40526;52.088;17.020;2023-11-22T16:22:23;27.77;;;14.02;;
31514;SDS011;40526;52.088;17.020;2023-11-22T16:27:26;29.40;;;15.02;;
31514;SDS011;40526;52.088;17.020;2023-11-22T16:32:29;34.58;;;17.83;;
31514;SDS011;40526;52.088;17.020;2023-11-22T16:37:36;37.33;;;17.90;;
31514;SDS011;40526;52.088;17.020;2023-11-22T16:42:40;43.53;;;19.05;;
31514;SDS011;40526;52.088;17.020;2023-11-22T16:47:43;45.70;;;23.25;;
31514;SDS011;40526;52.088;17.020;2023-11-22T16:52:48;39.45;;;18.55;;
31514;SDS011;40526;52.088;17.020;2023-11-22T16:57:51;33.95;;;17.20;;
31514;SDS011;40526;52.088;17.020;2023-11-22T17:02:53;38.47;;;19.33;;
31514;SDS011;40526;52.088;17.020;2023-11-22T17:08:00;49.17;;;25.42;;
31514;SDS011;40526;52.088;17.020;2023-11-22T17:13:04;47.15;;;25.23;;
31514;SDS011;40526;52.088;17.020;2023-11-22T17:18:06;78.70;;;30.65;;
31514;SDS011;40526;52.088;17.020;2023-11-22T17:23:10;80.72;;;31.83;;
31514;SDS011;40526;52.088;17.020;2023-11-22T17:28:13;80.93;;;33.38;;
31514;SDS011;40526;52.088;17.020;2023-11-22T17:33:15;73.28;;;33.35;;
31514;SDS011;40526;52.088;17.020;2023-11-22T17:38:19;59.60;;;28.23;;
31514;SDS011;40526;52.088;17.020;2023-11-22T17:43:21;49.03;;;24.13;;
31514;SDS011;40526;52.088;17.020;2023-11-22T17:48:24;46.30;;;23.77;;
31514;SDS011;40526;52.088;17.020;2023-11-22T17:53:28;45.42;;;24.10;;
31514;SDS011;40526;52.088;17.020;2023-11-22T17:58:30;50.25;;;23.98;;
31514;SDS011;40526;52.088;17.020;2023-11-22T18:03:34;76.22;;;32.45;;
31514;SDS011;40526;52.088;17.020;2023-11-22T18:08:38;83.88;;;31.92;;
31514;SDS011;40526;52.088;17.020;2023-11-22T18:13:40;70.85;;;27.67;;
31514;SDS011;40526;52.088;17.020;2023-11-22T18:18:43;76.35;;;30.85;;
31514;SDS011;40526;52.088;17.020;2023-11-22T18:23:47;77.38;;;31.67;;
31514;SDS011;40526;52.088;17.020;2023-11-22T18:28:50;83.68;;;33.60;;
31514;SDS011;40526;52.088;17.020;2023-11-22T18:33:52;79.72;;;33.53;;
31514;SDS011;40526;52.088;17.020;2023-11-22T18:38:56;83.50;;;32.30;;
31514;SDS011;40526;52.088;17.020;2023-11-22T18:43:59;83.50;;;34.83;;
31514;SDS011;40526;52.088;17.020;2023-11-22T18:49:02;79.97;;;32.17;;
31514;SDS011;40526;52.088;17.020;2023-11-22T18:54:07;79.55;;;31.00;;
31514;SDS011;40526;52.088;17.020;2023-11-22T18:59:11;44.45;;;21.83;;
31514;SDS011;40526;52.088;17.020;2023-11-22T19:04:13;41.08;;;20.10;;
31514;SDS011;40526;52.088;17.020;2023-11-22T19:09:18;40.97;;;19.73;;
31514;SDS011;40526;52.088;17.020;2023-11-22T19:14:20;44.45;;;20.70;;
31514;SDS011;40526;52.088;17.020;2023-11-22T19:19:26;45.85;;;21.63;;
31514;SDS011;40526;52.088;17.020;2023-11-22T19:24:30;54.67;;;23.48;;
31514;SDS011;40526;52.088;17.020;2023-11-22T19:29:32;41.33;;;21.30;;
31514;SDS011;40526;52.088;17.020;2023-11-22T19:34:35;40.42;;;18.55;;
31514;SDS011;40526;52.088;17.020;2023-11-22T19:39:39;44.78;;;19.67;;
31514;SDS011;40526;52.088;17.020;2023-11-22T19:44:42;39.92;;;20.05;;
31514;SDS011;40526;52.088;17.020;2023-11-22T19:49:45;56.08;;;24.55;;
31514;SDS011;40526;52.088;17.020;2023-11-22T19:54:49;43.60;;;20.48;;
31514;SDS011;40526;52.088;17.020;2023-11-22T19:59:51;52.25;;;23.05;;
31514;SDS011;40526;52.088;17.020;2023-11-22T20:04:56;37.35;;;19.00;;
31514;SDS011;40526;52.088;17.020;2023-11-22T20:10:00;39.03;;;19.52;;
31514;SDS011;40526;52.088;17.020;2023-11-22T20:15:04;39.28;;;18.48;;
31514;SDS011;40526;52.088;17.020;2023-11-22T20:20:07;38.15;;;19.08;;
31514;SDS011;40526;52.088;17.020;2023-11-22T20:25:11;35.40;;;18.38;;
31514;SDS011;40526;52.088;17.020;2023-11-22T20:30:14;39.90;;;17.95;;
31514;SDS011;40526;52.088;17.020;2023-11-22T20:35:16;43.33;;;19.20;;
31514;SDS011;40526;52.088;17.020;2023-11-22T20:40:20;47.28;;;20.80;;
31514;SDS011;40526;52.088;17.020;2023-11-22T20:45:23;49.00;;;19.48;;
31514;SDS011;40526;52.088;17.020;2023-11-22T20:50:26;45.10;;;19.63;;
31514;SDS011;40526;52.088;17.020;2023-11-22T20:55:30;38.40;;;18.80;;
31514;SDS011;40526;52.088;17.020;2023-11-22T21:00:32;54.70;;;24.42;;
31514;SDS011;40526;52.088;17.020;2023-11-22T21:05:35;49.30;;;21.23;;
31514;SDS011;40526;52.088;17.020;2023-11-22T21:10:39;44.13;;;21.40;;
31514;SDS011;40526;52.088;17.020;2023-11-22T21:15:41;41.55;;;19.08;;
31514;SDS011;40526;52.088;17.020;2023-11-22T21:20:46;41.92;;;20.75;;
31514;SDS011;40526;52.088;17.020;2023-11-22T21:25:50;41.72;;;20.33;;
31514;SDS011;40526;52.088;17.020;2023-11-22T21:30:53;31.08;;;17.88;;
31514;SDS011;40526;52.088;17.020;2023-11-22T21:35:55;38.75;;;20.27;;
31514;SDS011;40526;52.088;17.020;2023-11-22T21:40:59;39.22;;;19.00;;
31514;SDS011;40526;52.088;17.020;2023-11-22T21:46:02;34.65;;;16.88;;
31514;SDS011;40526;52.088;17.020;2023-11-22T21:51:05;34.83;;;17.98;;
31514;SDS011;40526;52.088;17.020;2023-11-22T21:56:09;36.42;;;18.17;;
31514;SDS011;40526;52.088;17.020;2023-11-22T22:01:11;34.10;;;17.50;;
31514;SDS011;40526;52.088;17.020;2023-11-22T22:06:17;38.38;;;19.10;;
31514;SDS011;40526;52.088;17.020;2023-11-22T22:11:21;29.35;;;15.88;;
31514;SDS011;40526;52.088;17.020;2023-11-22T22:16:24;31.35;;;16.77;;
31514;SDS011;40526;52.088;17.020;2023-11-22T22:21:26;31.67;;;16.58;;
31514;SDS011;40526;52.088;17.020;2023-11-22T22:26:30;30.80;;;16.15;;
31514;SDS011;40526;52.088;17.020;2023-11-22T22:31:36;30.08;;;16.77;;
31514;SDS011;40526;52.088;17.020;2023-11-22T22:36:38;33.40;;;16.95;;
31514;SDS011;40526;52.088;17.020;2023-11-22T22:41:42;34.30;;;17.67;;
31514;SDS011;40526;52.088;17.020;2023-11-22T22:46:45;34.33;;;17.02;;
31514;SDS011;40526;52.088;17.020;2023-11-22T22:51:47;37.20;;;17.35;;
31514;SDS011;40526;52.088;17.020;2023-11-22T22:56:51;36.58;;;17.23;;
31514;SDS011;40526;52.088;17.020;2023-11-22T23:01:53;36.25;;;18.65;;
31514;SDS011;40526;52.088;17.020;2023-11-22T23:06:57;43.95;;;21.95;;
31514;SDS011;40526;52.088;17.020;2023-11-22T23:12:01;45.00;;;24.77;;
31514;SDS011;40526;52.088;17.020;2023-11-22T23:17:04;31.08;;;17.27;;
31514;SDS011;40526;52.088;17.020;2023-11-22T23:22:06;30.23;;;16.58;;
31514;SDS011;40526;52.088;17.020;2023-11-22T23:27:10;35.85;;;16.52;;
31514;SDS011;40526;52.088;17.020;2023-11-22T23:32:13;31.15;;;16.90;;
31514;SDS011;40526;52.088;17.020;2023-11-22T23:37:15;30.92;;;15.85;;
31514;SDS011;40526;52.088;17.020;2023-11-22T23:42:19;28.95;;;16.17;;
31514;SDS011;40526;52.088;17.020;2023-11-22T23:47:21;31.02;;;16.85;;
31514;SDS011;40526;52.088;17.020;2023-11-22T23:52:24;29.08;;;15.45;;
31514;SDS011;40526;52.088;17.020;2023-11-22T23:57:29;29.10;;;16.55;;
